Time;durP1;ratioP1;P1;durP2;ratioP2;P2;SDS_P1;SDS_P2;PMS_P1;PMS_P2;Temp;Humidity;BMP_temperature;BMP_pressure;BME280_temperature;BME280_humidity;BME280_pressure;Samples;Min_cycle;Max_cycle;Signal;HPM_P1;HPM_P2
2022/05/19 00:00:09;;;;;;;14.85;13.23;;;;;;;29.16;75.36;100971.19;5057521;28;70210;-36
2022/05/19 00:02:40;;;;;;;18.13;13.15;;;;;;;29.23;73.81;100972.03;5060745;28;66141;-35
2022/05/19 00:05:10;;;;;;;21.38;15.63;;;;;;;29.18;75.95;100956.44;5059812;28;69963;-36
2022/05/19 00:07:41;;;;;;;17.30;14.68;;;;;;;29.32;75.81;100980.75;5049883;28;65222;-36
2022/05/19 00:10:12;;;;;;;17.15;15.35;;;;;;;29.24;77.42;100970.97;5041916;28;70320;-36
2022/05/19 00:12:42;;;;;;;20.20;16.08;;;;;;;29.39;77.66;100982.44;5051916;28;65368;-38
2022/05/19 00:15:13;;;;;;;20.10;17.73;;;;;;;29.03;76.71;100920.69;5056615;28;70609;-36
2022/05/19 00:17:43;;;;;;;23.02;18.13;;;;;;;29.51;77.46;100987.22;5056164;28;66717;-35
2022/05/19 00:20:14;;;;;;;21.35;19.08;;;;;;;29.51;76.12;100985.34;5053094;28;68531;-36
2022/05/19 00:22:45;;;;;;;22.77;17.27;;;;;;;29.43;76.42;100966.63;5059899;28;66215;-36
2022/05/19 00:25:16;;;;;;;19.65;17.55;;;;;;;29.56;76.33;100981.97;5059122;28;70215;-36
2022/05/19 00:27:47;;;;;;;20.50;18.60;;;;;;;29.57;77.63;100983.66;5058332;28;65550;-36
2022/05/19 00:30:17;;;;;;;16.90;15.52;;;;;;;29.60;77.79;101004.88;5052046;28;71872;-36
2022/05/19 00:32:48;;;;;;;15.23;13.55;;;;;;;29.60;77.37;100994.06;5043289;28;66071;-37
2022/05/19 00:35:19;;;;;;;16.70;13.85;;;;;;;29.60;77.38;101002.16;5058090;28;69837;-36
2022/05/19 00:37:50;;;;;;;12.80;11.63;;;;;;;29.67;75.81;101011.16;5059742;28;65982;-36
2022/05/19 00:40:23;;;;;;;13.00;11.70;;;;;;;29.23;76.90;100945.00;5056954;28;69759;-36
2022/05/19 00:42:54;;;;;;;14.30;13.10;;;;;;;29.58;77.23;100982.59;5053786;28;66041;-34
2022/05/19 00:45:27;;;;;;;11.73;10.90;;;;;;;29.33;73.01;100923.78;5057810;28;70159;-33
2022/05/19 00:48:08;;;;;;;10.63;9.82;;;;;;;29.97;72.58;101016.91;5053575;28;66249;-32
2022/05/19 00:51:02;;;;;;;10.13;9.35;;;;;;;29.43;72.69;100931.50;5049600;28;69721;-33
2022/05/19 00:53:39;;;;;;;9.40;8.55;;;;;;;30.13;71.20;101015.63;5039299;28;65457;-33
2022/05/19 00:56:25;;;;;;;9.75;8.82;;;;;;;30.17;71.63;101016.88;5054948;28;70047;-33
2022/05/19 00:59:21;;;;;;;9.02;8.43;;;;;;;30.19;71.33;101035.59;5046440;28;65568;-33
2022/05/19 01:01:55;;;;;;;9.20;8.60;;;;;;;30.32;70.13;101040.19;5052305;28;70224;-34
2022/05/19 01:04:29;;;;;;;8.00;7.60;;;;;;;30.38;69.18;101036.63;5053842;28;66348;-33
2022/05/19 01:07:05;;;;;;;7.80;7.30;;;;;;;30.27;69.34;101005.63;5058451;28;69685;-33
2022/05/19 01:09:37;;;;;;;8.25;7.72;;;;;;;30.44;68.74;101038.47;5059532;28;66199;-34
2022/05/19 01:12:09;;;;;;;8.38;7.88;;;;;;;30.49;68.17;101044.06;5059233;28;69613;-34
2022/05/19 01:14:39;;;;;;;8.02;7.32;;;;;;;30.48;68.45;101045.13;5057512;28;65987;-34
2022/05/19 01:17:10;;;;;;;7.47;7.03;;;;;;;30.58;68.43;101055.50;5059183;28;70420;-33
2022/05/19 01:19:53;;;;;;;7.90;7.15;;;;;;;30.06;68.79;100985.06;5051517;28;65868;-34
2022/05/19 01:22:52;;;;;;;7.93;7.32;;;;;;;30.58;68.48;101063.63;5052010;28;70094;-34
2022/05/19 01:25:47;;;;;;;7.35;6.85;;;;;;;30.57;68.62;101065.50;5042522;28;66055;-34
2022/05/19 01:28:18;;;;;;;6.93;6.50;;;;;;;30.67;67.31;101065.88;5054743;28;70306;-34
2022/05/19 01:30:48;;;;;;;8.60;7.80;;;;;;;30.69;67.72;101077.31;5056504;28;66110;-33
2022/05/19 01:33:20;;;;;;;7.40;6.90;;;;;;;30.70;67.41;101067.31;5055022;28;71091;-33
2022/05/19 01:35:50;;;;;;;7.43;6.88;;;;;;;30.68;66.87;101059.41;5055494;28;66108;-34
2022/05/19 01:38:28;;;;;;;7.55;7.05;;;;;;;30.80;66.58;101080.44;5051557;28;69927;-32
2022/05/19 01:41:29;;;;;;;10.82;6.95;;;;;;;30.69;66.97;101074.59;5056235;28;66676;-33
2022/05/19 01:44:12;;;;;;;7.82;7.00;;;;;;;30.86;65.96;101080.38;5051786;28;70034;-35
2022/05/19 01:46:44;;;;;;;;;;;;;;;30.55;66.97;101099.25;5050129;28;66332;-34
2022/05/19 01:49:22;;;;;;;6.95;6.47;;;;;;;30.85;65.94;101091.47;5057697;28;69659;-33
2022/05/19 01:52:07;;;;;;;6.88;6.47;;;;;;;30.92;66.19;101098.50;5056493;28;66207;-33
2022/05/19 01:54:59;;;;;;;6.05;5.65;;;;;;;30.85;66.10;101083.34;5052764;28;70312;-33
2022/05/19 01:57:38;;;;;;;6.57;6.07;;;;;;;30.95;65.31;101083.69;5056733;27;65598;-33
2022/05/19 02:00:16;;;;;;;6.97;6.47;;;;;;;30.99;65.55;101076.78;5053590;28;70810;-32
2022/05/19 02:02:55;;;;;;;6.47;5.95;;;;;;;30.95;65.13;101067.44;5051861;28;66570;-33
2022/05/19 02:05:40;;;;;;;6.70;6.15;;;;;;;31.03;65.05;101078.00;5058604;28;70174;-33
2022/05/19 02:08:21;;;;;;;6.45;6.05;;;;;;;30.56;64.62;100998.84;5056963;28;66856;-33
2022/05/19 02:10:59;;;;;;;6.05;5.65;;;;;;;30.59;64.54;100990.31;5056606;28;70151;-33
2022/05/19 02:13:32;;;;;;;6.45;5.95;;;;;;;31.15;64.38;101089.84;5055649;28;66361;-34
2022/05/19 02:16:06;;;;;;;6.25;5.85;;;;;;;31.20;64.72;101080.22;5057879;28;70259;-34
2022/05/19 02:18:37;;;;;;;6.35;5.85;;;;;;;31.21;64.56;101084.59;5055876;28;66560;-33
2022/05/19 02:21:08;;;;;;;6.15;5.75;;;;;;;31.15;63.96;101076.28;5057168;28;69425;-33
2022/05/19 02:23:41;;;;;;;6.25;5.85;;;;;;;31.22;63.70;101072.72;5056773;28;66037;-33
2022/05/19 02:26:12;;;;;;;6.68;6.07;;;;;;;31.28;63.85;101080.78;5049830;28;69941;-33
2022/05/19 02:28:55;;;;;;;6.60;5.30;;;;;;;30.67;63.55;100967.56;5051006;28;66487;-34
2022/05/19 02:31:27;;;;;;;6.25;5.75;;;;;;;31.32;63.75;101064.94;5052251;28;70243;-34
2022/05/19 02:33:58;;;;;;;5.38;5.03;;;;;;;31.33;63.37;101058.47;5055938;28;64895;-33
2022/05/19 02:36:29;;;;;;;5.90;5.50;;;;;;;31.35;63.12;101061.78;5055082;28;71353;-33
2022/05/19 02:38:59;;;;;;;6.50;5.90;;;;;;;31.28;63.16;101039.31;5058858;28;66834;-34
2022/05/19 02:41:30;;;;;;;5.80;5.40;;;;;;;31.42;63.09;101050.91;5054825;28;70568;-34
2022/05/19 02:44:01;;;;;;;5.43;5.00;;;;;;;31.33;62.98;101031.34;5057468;28;66749;-33
2022/05/19 02:46:31;;;;;;;5.57;5.18;;;;;;;31.45;63.07;101043.16;5053359;28;70153;-33
2022/05/19 02:49:02;;;;;;;6.93;5.50;;;;;;;31.47;63.12;101046.50;5046203;28;66510;-34
2022/05/19 02:51:33;;;;;;;6.40;6.00;;;;;;;31.48;62.98;101040.03;5051437;28;70522;-33
2022/05/19 02:54:03;;;;;;;5.95;5.55;;;;;;;31.52;62.81;101040.41;5056521;28;66241;-33
2022/05/19 02:56:35;;;;;;;6.60;6.13;;;;;;;31.53;62.90;101031.22;5056896;28;70282;-34
2022/05/19 02:59:05;;;;;;;6.63;6.20;;;;;;;31.53;62.42;101032.03;5057918;28;66433;-34
2022/05/19 03:01:36;;;;;;;6.38;5.97;;;;;;;31.47;62.54;101022.09;5056044;28;70255;-33
2022/05/19 03:04:07;;;;;;;6.60;6.10;;;;;;;31.57;62.29;101033.28;5056618;28;65430;-32
2022/05/19 03:06:38;;;;;;;6.53;6.13;;;;;;;31.46;62.38;101006.06;5053894;28;71399;-35
2022/05/19 03:09:09;;;;;;;5.88;5.47;;;;;;;31.59;62.16;101024.91;5059393;28;66327;-33
2022/05/19 03:11:39;;;;;;;5.77;5.47;;;;;;;31.59;62.52;101030.34;5056771;28;70016;-34
2022/05/19 03:14:10;;;;;;;6.10;5.70;;;;;;;31.65;62.04;101023.19;5051700;28;66225;-33
2022/05/19 03:16:41;;;;;;;7.78;5.55;;;;;;;31.65;62.15;101017.75;5059855;28;70244;-33
2022/05/19 03:19:12;;;;;;;6.28;5.88;;;;;;;31.65;62.09;101015.06;5060766;28;65990;-33
2022/05/19 03:21:43;;;;;;;6.88;6.47;;;;;;;31.71;62.01;101022.31;5059772;28;70208;-33
2022/05/19 03:24:13;;;;;;;6.70;6.20;;;;;;;31.69;61.91;101014.41;5058602;28;65698;-33
2022/05/19 03:26:44;;;;;;;7.22;6.75;;;;;;;31.72;61.49;101013.13;5055308;28;69482;-35
2022/05/19 03:29:15;;;;;;;6.40;6.00;;;;;;;31.75;61.90;101008.06;5059760;28;65634;-34
2022/05/19 03:31:46;;;;;;;6.63;6.25;;;;;;;31.73;61.53;100998.50;5057851;28;70458;-35
2022/05/19 03:34:17;;;;;;;7.23;6.73;;;;;;;31.66;61.63;100984.19;5060295;28;66076;-34
2022/05/19 03:36:49;;;;;;;7.72;6.88;;;;;;;31.69;61.25;100987.28;5058986;28;69147;-33
2022/05/19 03:39:19;;;;;;;6.55;6.18;;;;;;;31.69;61.34;100970.19;5058526;28;66246;-34
2022/05/19 03:41:50;;;;;;;6.63;6.32;;;;;;;31.85;61.37;100996.72;5058843;28;70014;-34
2022/05/19 03:44:22;;;;;;;;;;;;;;;31.56;61.95;100988.22;5056367;28;65643;-35
2022/05/19 03:46:52;;;;;;;6.88;6.43;;;;;;;31.88;61.20;100980.00;5052167;28;69303;-33
2022/05/19 03:49:23;;;;;;;6.80;6.40;;;;;;;31.94;60.92;100984.56;5056365;28;65750;-33
2022/05/19 03:51:54;;;;;;;6.75;6.43;;;;;;;31.96;60.83;100987.88;5055007;28;70021;-33
2022/05/19 03:54:24;;;;;;;7.47;6.93;;;;;;;31.98;61.19;100980.34;5056433;28;66968;-34
2022/05/19 03:56:55;;;;;;;7.72;6.88;;;;;;;32.02;61.23;100970.69;5059869;28;70119;-35
2022/05/19 03:59:26;;;;;;;7.40;7.00;;;;;;;31.70;60.77;100923.00;5058782;28;65417;-33
2022/05/19 04:01:56;;;;;;;7.45;7.05;;;;;;;31.94;61.04;100943.03;5059849;28;70427;-34
2022/05/19 04:04:27;;;;;;;7.95;7.55;;;;;;;32.08;60.50;100955.38;5058695;28;65824;-33
2022/05/19 04:06:58;;;;;;;7.30;6.90;;;;;;;32.11;60.57;100956.81;5059921;28;69803;-33
2022/05/19 04:09:28;;;;;;;8.98;8.13;;;;;;;32.06;60.58;100943.91;5058321;28;66059;-34
2022/05/19 04:11:59;;;;;;;8.45;7.85;;;;;;;32.15;60.63;100947.16;5055094;28;68919;-34
2022/05/19 04:14:30;;;;;;;;;;;;;;;31.82;60.91;100948.34;5060743;28;66824;-34
2022/05/19 04:17:01;;;;;;;8.25;7.75;;;;;;;32.13;60.71;100935.72;5054815;28;69731;-33
2022/05/19 04:19:31;;;;;;;8.70;8.00;;;;;;;32.16;60.46;100944.22;5059569;28;66089;-33
2022/05/19 04:22:04;;;;;;;7.97;7.57;;;;;;;32.17;60.64;100934.19;5059848;28;70126;-33
2022/05/19 04:24:34;;;;;;;8.68;7.88;;;;;;;32.19;60.78;100929.38;5058153;28;66056;-33
2022/05/19 04:27:05;;;;;;;8.15;7.75;;;;;;;32.20;60.36;100925.59;5058328;28;70671;-33
2022/05/19 04:29:36;;;;;;;8.43;7.93;;;;;;;32.20;60.69;100928.31;5058527;28;67290;-33
2022/05/19 04:32:07;;;;;;;8.13;7.53;;;;;;;32.19;60.49;100921.22;5059939;28;69898;-34
2022/05/19 04:34:38;;;;;;;8.30;7.80;;;;;;;32.22;60.80;100915.34;5054547;28;65374;-35
2022/05/19 04:37:10;;;;;;;8.05;7.57;;;;;;;32.24;60.45;100911.34;5058098;28;69859;-33
2022/05/19 04:39:41;;;;;;;8.48;7.90;;;;;;;32.22;60.59;100901.78;5058389;28;65735;-34
2022/05/19 04:42:13;;;;;;;8.65;8.25;;;;;;;32.29;60.27;100910.66;5058273;28;70060;-33
2022/05/19 04:44:43;;;;;;;8.32;7.93;;;;;;;32.13;60.47;100878.72;5055140;28;65483;-34
2022/05/19 04:47:14;;;;;;;8.82;8.32;;;;;;;32.30;60.42;100896.03;5057028;28;69111;-34
2022/05/19 04:49:45;;;;;;;9.88;8.27;;;;;;;32.31;60.41;100897.66;5051875;28;65311;-34
2022/05/19 04:52:16;;;;;;;8.95;8.30;;;;;;;32.31;60.26;100897.66;5053446;28;70165;-34
2022/05/19 04:54:47;;;;;;;8.70;8.20;;;;;;;32.30;60.06;100890.59;5057919;28;66626;-33
2022/05/19 04:57:18;;;;;;;9.20;8.70;;;;;;;32.30;60.20;100890.59;5058361;27;71620;-33
2022/05/19 04:59:49;;;;;;;8.75;8.35;;;;;;;32.32;60.21;100885.78;5056964;28;67899;-33
2022/05/19 05:02:19;;;;;;;9.57;8.90;;;;;;;32.28;59.93;100887.28;5053058;28;70277;-34
2022/05/19 05:04:50;;;;;;;9.02;8.52;;;;;;;32.34;60.00;100889.06;5050359;28;66668;-33
2022/05/19 05:07:21;;;;;;;9.52;8.70;;;;;;;32.31;60.25;100880.56;5058831;28;70140;-32
2022/05/19 05:09:51;;;;;;;9.57;8.93;;;;;;;32.23;60.00;100873.56;5051058;28;64394;-33
2022/05/19 05:12:22;;;;;;;9.55;9.05;;;;;;;32.25;60.29;100887.75;5053810;28;69776;-34
2022/05/19 05:14:53;;;;;;;9.00;8.50;;;;;;;32.35;60.53;100908.91;5054908;28;66713;-34
2022/05/19 05:17:23;;;;;;;9.60;8.75;;;;;;;32.30;60.55;100915.03;5058900;28;70338;-35
2022/05/19 05:19:54;;;;;;;9.88;9.18;;;;;;;32.31;60.38;100913.97;5045021;28;65992;-33
2022/05/19 05:22:25;;;;;;;9.52;8.73;;;;;;;32.22;61.43;100901.78;5037309;28;68580;-33
2022/05/19 05:24:56;;;;;;;10.03;9.30;;;;;;;32.15;61.97;100893.72;5055654;28;66291;-33
2022/05/19 05:27:27;;;;;;;12.00;10.20;;;;;;;32.26;62.54;100900.25;5058245;28;70110;-33
2022/05/19 05:29:57;;;;;;;9.77;8.55;;;;;;;32.18;62.71;100892.41;5060765;28;66144;-32
2022/05/19 05:32:29;;;;;;;8.68;8.00;;;;;;;32.21;62.71;100902.84;5058759;28;70239;-34
2022/05/19 05:35:01;;;;;;;9.32;8.52;;;;;;;32.21;62.25;100902.84;5054393;28;68061;-34
2022/05/19 05:37:31;;;;;;;8.57;8.05;;;;;;;32.22;62.25;100888.19;5060166;28;71801;-34
2022/05/19 05:40:06;;;;;;;9.00;8.20;;;;;;;32.19;62.55;100884.06;5058982;28;65921;-33
2022/05/19 05:42:39;;;;;;;8.63;8.02;;;;;;;32.19;62.19;100883.22;5058762;28;69956;-32
2022/05/19 05:45:11;;;;;;;9.07;8.50;;;;;;;32.18;62.07;100876.97;5058630;28;65270;-35
2022/05/19 05:47:41;;;;;;;9.57;8.68;;;;;;;32.17;62.14;100866.34;5039385;28;70522;-34
2022/05/19 05:50:13;;;;;;;8.33;7.73;;;;;;;32.13;62.18;100852.41;5022476;28;66226;-34
2022/05/19 05:52:44;;;;;;;7.97;7.30;;;;;;;32.08;62.31;100840.59;5043568;28;69343;-32
2022/05/19 05:55:14;;;;;;;7.65;7.03;;;;;;;32.10;62.23;100830.34;5039004;28;66021;-33
2022/05/19 05:57:45;;;;;;;8.40;7.90;;;;;;;32.08;62.31;100829.75;5056456;28;69306;-34
2022/05/19 06:00:16;;;;;;;8.00;7.50;;;;;;;32.03;62.13;100820.38;5040808;28;66026;-33
2022/05/19 06:02:48;;;;;;;7.85;7.35;;;;;;;32.02;62.50;100820.63;5039130;28;69496;-34
2022/05/19 06:05:20;;;;;;;7.72;7.22;;;;;;;32.01;62.38;100808.97;5039905;28;65571;-33
2022/05/19 06:07:51;;;;;;;7.53;6.83;;;;;;;31.96;62.81;100797.97;5038341;28;68957;-34
2022/05/19 06:10:22;;;;;;;7.35;6.90;;;;;;;31.88;62.70;100792.00;5058353;28;65572;-33
2022/05/19 06:12:53;;;;;;;7.28;6.85;;;;;;;31.95;62.78;100806.31;5034294;28;68696;-33
2022/05/19 06:15:25;;;;;;;8.05;7.32;;;;;;;31.93;62.86;100803.84;5039485;28;66796;-34
2022/05/19 06:17:57;;;;;;;7.90;7.25;;;;;;;31.85;63.16;100787.84;5039180;28;68813;-34
2022/05/19 06:20:28;;;;;;;7.03;6.60;;;;;;;31.84;62.92;100783.47;5038768;28;65446;-35
2022/05/19 06:22:59;;;;;;;7.57;6.97;;;;;;;31.86;63.22;100783.25;5039214;28;70108;-33
2022/05/19 06:25:30;;;;;;;7.57;7.13;;;;;;;31.89;62.83;100785.50;5037153;28;65046;-33
2022/05/19 06:28:01;;;;;;;7.55;7.00;;;;;;;31.86;63.13;100786.78;5038829;28;70519;-39
2022/05/19 06:30:32;;;;;;;6.90;6.50;;;;;;;31.77;62.94;100761.88;5039625;28;65797;-34
2022/05/19 06:33:05;;;;;;;7.45;6.85;;;;;;;31.87;63.23;100776.75;5041985;28;70011;-34
2022/05/19 06:35:37;;;;;;;7.55;7.07;;;;;;;31.86;62.58;100775.94;5050843;28;66421;-33
2022/05/19 06:38:07;;;;;;;7.93;7.43;;;;;;;31.81;62.81;100764.94;5057746;28;68927;-35
2022/05/19 06:40:39;;;;;;;7.00;6.60;;;;;;;31.81;63.01;100756.81;5056521;28;65502;-35
2022/05/19 06:43:14;;;;;;;7.43;7.00;;;;;;;31.85;62.92;100768.06;5038133;28;69706;-34
2022/05/19 06:45:49;;;;;;;7.13;6.72;;;;;;;31.86;63.50;100754.25;5023045;28;65535;-34
2022/05/19 06:48:20;;;;;;;7.18;6.78;;;;;;;31.86;63.44;100759.66;5018007;28;69086;-36
2022/05/19 06:50:51;;;;;;;7.53;7.03;;;;;;;31.86;63.33;100759.66;5039869;28;66347;-33
2022/05/19 06:53:43;;;;;;;7.50;6.78;;;;;;;31.87;63.25;100758.59;5056786;28;70293;-34
2022/05/19 06:56:13;;;;;;;7.18;6.55;;;;;;;31.88;63.23;100745.88;5059267;28;65518;-34
2022/05/19 06:58:44;;;;;;;7.47;6.97;;;;;;;31.88;63.53;100735.84;5057428;28;70137;-35
2022/05/19 07:01:15;;;;;;;7.55;6.97;;;;;;;31.94;63.10;100729.53;5057511;28;66495;-35
2022/05/19 07:03:45;;;;;;;7.57;6.90;;;;;;;31.94;62.91;100724.09;5057662;28;68933;-33
2022/05/19 07:06:16;;;;;;;6.40;6.10;;;;;;;31.95;63.18;100712.19;5044494;28;65738;-34
2022/05/19 07:08:47;;;;;;;7.20;6.70;;;;;;;31.95;62.94;100717.63;5037675;28;70028;-35
2022/05/19 07:11:26;;;;;;;6.88;6.38;;;;;;;31.99;63.22;100726.97;5037548;28;66595;-33
2022/05/19 07:14:04;;;;;;;6.82;6.43;;;;;;;32.00;63.06;100723.19;5036517;28;70244;-33
2022/05/19 07:16:35;;;;;;;6.70;6.30;;;;;;;31.99;63.00;100721.53;5040745;28;65598;-33
2022/05/19 07:21:55;;;;;;;5.72;5.20;;;;;;;31.95;63.10;100708.66;5039509;28;66520;-34
2022/05/19 07:24:25;;;;;;;6.28;5.88;;;;;;;32.00;63.38;100717.75;5038979;28;70643;-33
2022/05/19 07:26:56;;;;;;;6.32;5.82;;;;;;;31.96;62.83;100718.47;5056566;28;66194;-32
2022/05/19 07:29:27;;;;;;;6.63;6.05;;;;;;;32.03;62.94;100733.56;5039536;28;69900;-33
2022/05/19 07:32:01;;;;;;;6.07;5.68;;;;;;;31.91;63.12;100713.72;5038374;28;65950;-33
2022/05/19 07:34:34;;;;;;;5.95;5.65;;;;;;;31.45;63.37;100644.66;5037622;28;70143;-33
2022/05/19 07:37:06;;;;;;;6.35;5.95;;;;;;;31.89;63.29;100721.22;5049231;28;65783;-33
2022/05/19 07:39:36;;;;;;;7.90;5.55;;;;;;;32.01;63.72;100740.28;5057498;28;69800;-33
2022/05/19 07:42:07;;;;;;;5.88;5.50;;;;;;;31.99;63.18;100726.97;5058524;28;67003;-33
2022/05/19 07:44:38;;;;;;;5.68;5.22;;;;;;;31.96;63.86;100732.03;5057692;28;69168;-33
2022/05/19 07:47:09;;;;;;;6.35;5.85;;;;;;;31.94;63.88;100729.53;5057744;28;66016;-33
2022/05/19 07:49:40;;;;;;;5.93;5.45;;;;;;;31.94;63.66;100729.53;5057760;28;69972;-33
2022/05/19 07:52:11;;;;;;;5.72;5.32;;;;;;;31.89;63.66;100720.41;5061847;28;66279;-34
2022/05/19 07:54:42;;;;;;;5.78;5.38;;;;;;;31.76;63.77;100705.13;5044712;28;71359;-34
2022/05/19 07:57:12;;;;;;;6.35;5.75;;;;;;;31.82;63.72;100709.66;5042502;28;66142;-33
2022/05/19 07:59:43;;;;;;;7.07;5.45;;;;;;;31.79;63.93;100715.56;5040638;28;70645;-33
2022/05/19 08:02:14;;;;;;;5.30;5.00;;;;;;;31.77;63.95;100709.53;5055318;28;65693;-35
2022/05/19 08:04:45;;;;;;;4.40;4.10;;;;;;;31.86;63.90;100716.25;5061029;28;70333;-34
2022/05/19 08:07:15;;;;;;;5.18;4.78;;;;;;;31.82;64.09;100720.50;5060302;28;65967;-33
2022/05/19 08:15:44;;;;;;;4.82;4.43;;;;;;;31.34;63.89;100642.72;5015919;28;70200;-33
2022/05/19 08:18:18;;;;;;;4.50;4.20;;;;;;;31.82;63.77;100720.50;5046433;28;66639;-33
2022/05/19 08:20:56;;;;;;;4.30;3.65;;;;;;;31.30;63.82;100641.53;5060198;28;69783;-34
2022/05/19 08:23:33;;;;;;;4.20;3.90;;;;;;;31.47;63.78;100669.66;5038665;28;66285;-33
2022/05/19 08:26:08;;;;;;;4.13;3.85;;;;;;;31.80;63.67;100723.44;5041282;28;70044;-33
2022/05/19 08:28:43;;;;;;;4.13;3.83;;;;;;;31.82;63.61;100725.94;5041418;28;65660;-34
2022/05/19 08:31:24;;;;;;;3.90;3.58;;;;;;;31.81;63.49;100714.22;5038677;28;69597;-33
2022/05/19 08:33:56;;;;;;;4.35;4.05;;;;;;;31.46;63.52;100661.78;5041552;28;66448;-33
2022/05/19 08:36:27;;;;;;;3.72;3.53;;;;;;;31.79;63.65;100704.69;5040367;28;69668;-33
2022/05/19 08:38:57;;;;;;;3.43;3.23;;;;;;;31.79;64.11;100704.69;5051086;28;65816;-33
2022/05/19 08:41:46;;;;;;;3.55;3.30;;;;;;;31.73;64.25;100705.59;5058310;28;70179;-33
2022/05/19 08:44:38;;;;;;;3.42;3.13;;;;;;;31.20;64.56;100620.38;5046857;28;66013;-33
2022/05/19 08:47:13;;;;;;;3.45;3.25;;;;;;;31.38;64.16;100624.97;5042773;28;69144;-33
2022/05/19 08:50:03;;;;;;;3.40;3.20;;;;;;;31.71;65.23;100691.47;5045730;28;65611;-33
2022/05/19 08:52:45;;;;;;;4.72;3.08;;;;;;;31.39;64.69;100618.50;5038722;28;70021;-34
2022/05/19 08:55:17;;;;;;;3.25;2.70;;;;;;;31.77;64.43;100682.41;5039879;28;66231;-33
2022/05/19 08:57:59;;;;;;;;;;;;;;;31.42;65.50;100683.06;5039299;28;70037;-34
2022/05/19 09:00:44;;;;;;;3.65;3.45;;;;;;;31.44;64.55;100656.56;5053870;28;65454;-33
2022/05/19 09:03:33;;;;;;;3.40;3.20;;;;;;;31.10;64.53;100593.84;5057686;28;69328;-34
2022/05/19 09:06:07;;;;;;;3.42;3.22;;;;;;;31.75;64.16;100704.31;5059191;28;65611;-34
2022/05/19 09:09:07;;;;;;;3.35;3.15;;;;;;;31.73;64.51;100694.75;5039896;28;70378;-33
2022/05/19 09:12:14;;;;;;;3.90;3.60;;;;;;;31.59;64.77;100689.53;5046711;28;66431;-34
2022/05/19 09:14:44;;;;;;;3.30;3.10;;;;;;;31.71;64.40;100678.72;5040960;28;70405;-33
2022/05/19 09:17:17;;;;;;;3.00;2.80;;;;;;;31.22;64.66;100595.78;5041752;28;65266;-33
2022/05/19 09:20:06;;;;;;;3.42;3.22;;;;;;;31.66;65.10;100683.19;5060155;28;70275;-35
2022/05/19 09:22:37;;;;;;;3.88;3.67;;;;;;;31.68;64.61;100679.19;5059645;28;66848;-35
2022/05/19 09:25:17;;;;;;;3.55;3.25;;;;;;;31.23;64.66;100616.38;5054008;28;70630;-33
2022/05/19 09:27:51;;;;;;;5.40;3.67;;;;;;;31.72;64.62;100691.22;5049689;28;64836;-35
2022/05/19 09:30:36;;;;;;;3.90;3.60;;;;;;;31.64;64.74;100685.28;5041504;28;70537;-33
2022/05/19 09:33:14;;;;;;;4.13;3.80;;;;;;;31.68;64.60;100675.63;5043316;28;64998;-34
2022/05/19 09:35:50;;;;;;;3.80;3.50;;;;;;;31.60;65.01;100677.63;5056245;28;69843;-34
2022/05/19 09:38:30;;;;;;;3.58;3.38;;;;;;;31.55;64.64;100680.19;5056290;28;65871;-34
2022/05/19 09:41:06;;;;;;;4.15;3.83;;;;;;;31.23;64.99;100630.78;5051968;28;69339;-34
2022/05/19 09:43:37;;;;;;;4.18;3.17;;;;;;;31.36;64.75;100656.91;5051950;28;66569;-33
2022/05/19 09:46:17;;;;;;;3.90;3.70;;;;;;;31.66;64.78;100705.69;5054599;28;69687;-33
2022/05/19 09:48:58;;;;;;;4.30;4.00;;;;;;;31.68;64.96;100714.44;5054367;28;66754;-33
2022/05/19 09:51:42;;;;;;;4.28;3.90;;;;;;;31.65;64.93;100714.91;5053107;28;70189;-32
2022/05/19 09:54:14;;;;;;;4.38;4.07;;;;;;;31.67;64.80;100712.78;5055566;28;66900;-33
2022/05/19 09:56:52;;;;;;;4.57;4.18;;;;;;;31.67;65.44;100715.47;5055706;28;69357;-33
2022/05/19 09:59:36;;;;;;;5.03;4.72;;;;;;;31.09;65.47;100622.00;5056463;28;66171;-33
2022/05/19 10:02:32;;;;;;;5.40;4.90;;;;;;;31.44;65.69;100683.69;5044785;28;70136;-34
2022/05/19 10:05:33;;;;;;;5.43;5.03;;;;;;;31.20;65.78;100636.63;5059771;28;65828;-33
2022/05/19 10:08:12;;;;;;;5.15;4.85;;;;;;;31.67;65.02;100718.19;5058685;28;69951;-33
2022/05/19 10:11:05;;;;;;;5.18;4.88;;;;;;;31.63;65.61;100702.63;5046234;28;66572;-33
2022/05/19 10:13:56;;;;;;;5.07;4.78;;;;;;;31.60;65.29;100707.44;5043940;28;69824;-33
2022/05/19 10:16:35;;;;;;;8.75;8.05;;;;;;;31.42;68.65;100714.78;5049316;28;66553;-34
2022/05/19 10:19:14;;;;;;;12.65;10.95;;;;;;;30.72;70.95;100630.09;5054984;28;70313;-34
2022/05/19 10:21:51;;;;;;;12.07;10.93;;;;;;;31.00;72.09;100712.72;5052944;28;66646;-35
2022/05/19 10:24:58;;;;;;;13.98;11.88;;;;;;;30.88;73.16;100719.97;5051403;28;69615;-35
2022/05/19 10:31:02;;;;;;;30.20;17.98;;;;;;;30.73;75.69;100731.94;5054717;28;70025;-33
2022/05/19 10:34:01;;;;;;;17.38;15.68;;;;;;;30.75;75.42;100741.72;5054014;28;66259;-33
2022/05/19 10:37:10;;;;;;;21.25;15.93;;;;;;;30.66;75.67;100754.72;5054787;28;70187;-34
2022/05/19 10:40:33;;;;;;;21.15;15.00;;;;;;;30.59;76.80;100771.03;5034925;28;66337;-35
2022/05/19 10:43:31;;;;;;;21.40;15.32;;;;;;;30.20;77.13;100708.03;5003439;28;70158;-33
2022/05/19 10:46:07;;;;;;;22.20;17.13;;;;;;;30.72;77.42;100770.88;5013179;28;66401;-34
2022/05/19 10:49:02;;;;;;;23.83;15.95;;;;;;;30.67;77.39;100787.00;5047895;28;69876;-34
2022/05/19 10:51:59;;;;;;;18.98;16.42;;;;;;;30.73;77.69;100786.09;5053209;28;66441;-35
2022/05/19 10:55:09;;;;;;;24.55;18.98;;;;;;;30.31;77.81;100740.84;5052725;28;69627;-35
2022/05/19 10:58:24;;;;;;;20.00;16.88;;;;;;;30.70;77.80;100796.53;4999025;28;65083;-35
2022/05/19 11:01:22;;;;;;;21.05;18.13;;;;;;;30.60;78.54;100799.75;5003749;28;70039;-35
2022/05/19 11:04:16;;;;;;;23.98;17.45;;;;;;;30.67;78.80;100811.38;5010076;28;66150;-34
2022/05/19 11:07:01;;;;;;;23.92;18.52;;;;;;;30.72;78.94;100811.50;5050805;28;69580;-34
2022/05/19 11:09:44;;;;;;;18.42;16.42;;;;;;;30.73;78.71;100821.31;5039160;28;64885;-35
2022/05/19 11:12:29;;;;;;;24.80;17.73;;;;;;;30.70;78.58;100824.47;5055189;28;69593;-34
2022/05/19 11:15:43;;;;;;;23.30;16.88;;;;;;;30.64;78.55;100816.38;5053518;28;65607;-34
2022/05/19 11:18:22;;;;;;;18.67;15.80;;;;;;;30.70;78.50;100821.75;5052034;28;70027;-33
2022/05/19 11:21:11;;;;;;;17.13;15.32;;;;;;;30.71;78.24;100823.41;5051106;28;66340;-34
2022/05/19 11:23:50;;;;;;;22.00;15.82;;;;;;;30.69;78.68;100830.09;5050918;28;69500;-34
2022/05/19 11:26:42;;;;;;;18.17;15.40;;;;;;;30.61;78.84;100825.75;5053148;28;66333;-34
2022/05/19 11:29:47;;;;;;;14.82;13.38;;;;;;;30.59;78.55;100840.56;5053432;28;70038;-33
2022/05/19 11:32:27;;;;;;;18.80;13.15;;;;;;;30.67;78.59;100843.00;5055243;28;65670;-34
2022/05/19 11:35:26;;;;;;;13.88;12.60;;;;;;;30.58;78.33;100850.56;5054919;28;70135;-35
2022/05/19 11:38:19;;;;;;;12.82;11.65;;;;;;;30.64;78.62;100851.56;5050034;28;65932;-35
2022/05/19 11:40:56;;;;;;;12.90;11.73;;;;;;;30.62;78.63;100854.50;5046646;28;70546;-34
2022/05/19 11:43:39;;;;;;;11.88;10.98;;;;;;;30.63;78.21;100858.88;5050271;28;65577;-34
2022/05/19 11:46:20;;;;;;;10.65;9.75;;;;;;;30.61;78.40;100866.38;5054256;28;69511;-35
2022/05/19 11:55:32;;;;;;;9.32;8.68;;;;;;;30.56;78.54;100868.91;5050565;28;65275;-35
2022/05/19 11:58:11;;;;;;;9.80;9.00;;;;;;;30.56;78.74;100866.19;5055118;28;69331;-36
2022/05/19 12:01:10;;;;;;;9.45;8.52;;;;;;;30.50;79.43;100869.78;5053302;28;66256;-36
2022/05/19 12:04:08;;;;;;;9.60;8.13;;;;;;;30.54;79.23;100862.91;5055582;28;69871;-35
2022/05/19 12:06:54;;;;;;;8.10;7.53;;;;;;;30.12;78.86;100799.44;5049290;28;65641;-36
2022/05/19 12:09:44;;;;;;;8.00;7.40;;;;;;;30.58;79.45;100883.06;5053491;28;70531;-36
2022/05/19 12:12:24;;;;;;;8.18;7.68;;;;;;;30.16;79.54;100787.13;5054503;28;66508;-35
2022/05/19 12:15:26;;;;;;;8.38;7.63;;;;;;;30.61;79.42;100877.19;5053075;28;69420;-34
2022/05/19 12:18:00;;;;;;;6.95;6.40;;;;;;;30.67;78.90;100881.75;5050494;28;66612;-34
2022/05/19 12:20:40;;;;;;;7.70;7.20;;;;;;;30.58;79.10;100872.22;5054105;28;70336;-35
2022/05/19 12:23:24;;;;;;;7.53;7.05;;;;;;;30.71;78.88;100882.97;5049668;28;65758;-37
2022/05/19 12:26:07;;;;;;;7.30;6.65;;;;;;;30.72;78.90;100883.78;5049375;28;70503;-34